地図

経路データ

SID SEASON NUMBER BASIN SUBBASIN NAME ISO_TIME NATURE LAT LON WMO_WIND WMO_PRES WMO_AGENCY TRACK_TYPE DIST2LAND LANDFALL IFLAG USA_AGENCY USA_ATCF_ID USA_LAT USA_LON USA_RECORD USA_STATUS USA_WIND USA_PRES USA_SSHS USA_R34_NE USA_R34_SE USA_R34_SW USA_R34_NW USA_R50_NE USA_R50_SE USA_R50_SW USA_R50_NW USA_R64_NE USA_R64_SE USA_R64_SW USA_R64_NW USA_POCI USA_ROCI USA_RMW USA_EYE TOKYO_LAT TOKYO_LON TOKYO_GRADE TOKYO_WIND TOKYO_PRES TOKYO_R50_DIR TOKYO_R50_LONG TOKYO_R50_SHORT TOKYO_R30_DIR TOKYO_R30_LONG TOKYO_R30_SHORT TOKYO_LAND CMA_LAT CMA_LON CMA_CAT CMA_WIND CMA_PRES HKO_LAT HKO_LON HKO_CAT HKO_WIND HKO_PRES NEWDELHI_LAT NEWDELHI_LON NEWDELHI_GRADE NEWDELHI_WIND NEWDELHI_PRES NEWDELHI_CI NEWDELHI_DP NEWDELHI_POCI REUNION_LAT REUNION_LON REUNION_TYPE REUNION_WIND REUNION_PRES REUNION_TNUM REUNION_CI REUNION_RMW REUNION_R34_NE REUNION_R34_SE REUNION_R34_SW REUNION_R34_NW REUNION_R50_NE REUNION_R50_SE REUNION_R50_SW REUNION_R50_NW REUNION_R64_NE REUNION_R64_SE REUNION_R64_SW REUNION_R64_NW BOM_LAT BOM_LON BOM_TYPE BOM_WIND BOM_PRES BOM_TNUM BOM_CI BOM_RMW BOM_R34_NE BOM_R34_SE BOM_R34_SW BOM_R34_NW BOM_R50_NE BOM_R50_SE BOM_R50_SW BOM_R50_NW BOM_R64_NE BOM_R64_SE BOM_R64_SW BOM_R64_NW BOM_ROCI BOM_POCI BOM_EYE BOM_POS_METHOD BOM_PRES_METHOD NADI_LAT NADI_LON NADI_CAT NADI_WIND NADI_PRES WELLINGTON_LAT WELLINGTON_LON WELLINGTON_WIND WELLINGTON_PRES DS824_LAT DS824_LON DS824_STAGE DS824_WIND DS824_PRES TD9636_LAT TD9636_LON TD9636_STAGE TD9636_WIND TD9636_PRES TD9635_LAT TD9635_LON TD9635_WIND TD9635_PRES TD9635_ROCI NEUMANN_LAT NEUMANN_LON NEUMANN_CLASS NEUMANN_WIND NEUMANN_PRES MLC_LAT MLC_LON MLC_CLASS MLC_WIND MLC_PRES USA_GUST BOM_GUST BOM_GUST_PER REUNION_GUST REUNION_GUST_PER USA_SEAHGT USA_SEARAD_NE USA_SEARAD_SE USA_SEARAD_SW USA_SEARAD_NW STORM_SPEED STORM_DIR
1877131S07090 1877 14 SI MM NOT_NAMED 1877-05-11 06:00:00 NR -6.90000 89.8000 main 1165 1165 _____O________ -1 -6.90000 89.8000 99 9.90000 7 237
1877131S07090 1877 14 SI MM NOT_NAMED 1877-05-11 09:00:00 NR -7.08345 89.5094 main 1205 1205 _____P________ -1 -7.08345 89.5094 99 7 238
1877131S07090 1877 14 SI MM NOT_NAMED 1877-05-11 12:00:00 NR -7.26479 89.2213 main 1245 1245 _____P________ -1 -7.26479 89.2213 99 7 238
1877131S07090 1877 14 SI MM NOT_NAMED 1877-05-11 15:00:00 NR -7.44208 88.9384 main 1279 1279 _____P________ -1 -7.44208 88.9384 99 7 238
1877131S07090 1877 14 SI MM NOT_NAMED 1877-05-11 18:00:00 NR -7.61337 88.6636 main 1310 1310 _____P________ -1 -7.61337 88.6636 99 6 238
1877131S07090 1877 14 SI MM NOT_NAMED 1877-05-11 21:00:00 NR -7.77673 88.3995 main 1350 1350 _____P________ -1 -7.77673 88.3995 99 6 238
1877131S07090 1877 14 SI MM NOT_NAMED 1877-05-12 00:00:00 NR -7.93023 88.1490 main 1384 1384 _____P________ -1 -7.93023 88.1490 99 6 238
1877131S07090 1877 14 SI MM NOT_NAMED 1877-05-12 03:00:00 NR -8.07195 87.9149 main 1414 1414 _____P________ -1 -8.07195 87.9149 99 5 239
1877131S07090 1877 14 SI MM NOT_NAMED 1877-05-12 06:00:00 NR -8.20000 87.7000 main 1439 1439 _____O________ -1 -8.20000 87.7000 99 9.90000 5 239
1877131S07090 1877 14 SI MM NOT_NAMED 1877-05-12 09:00:00 NR -8.31325 87.5060 main 1463 1463 _____P________ -1 -8.31325 87.5060 99 4 240
1877131S07090 1877 14 SI MM NOT_NAMED 1877-05-12 12:00:00 NR -8.41368 87.3308 main 1488 1488 _____P________ -1 -8.41368 87.3308 99 4 240
1877131S07090 1877 14 SI MM NOT_NAMED 1877-05-12 15:00:00 NR -8.50403 87.1714 main 1503 1503 _____P________ -1 -8.50403 87.1714 99 4 240
1877131S07090 1877 14 SI MM NOT_NAMED 1877-05-12 18:00:00 NR -8.58703 87.0245 main 1528 1528 _____P________ -1 -8.58703 87.0245 99 3 240
1877131S07090 1877 14 SI MM NOT_NAMED 1877-05-12 21:00:00 NR -8.66541 86.8870 main 1543 1543 _____P________ -1 -8.66541 86.8870 99 3 240
1877131S07090 1877 14 SI MM NOT_NAMED 1877-05-13 00:00:00 NR -8.74189 86.7559 main 1553 1553 _____P________ -1 -8.74189 86.7559 99 3 239
1877131S07090 1877 14 SI MM NOT_NAMED 1877-05-13 03:00:00 NR -8.81918 86.6280 main 1577 1577 _____P________ -1 -8.81918 86.6280 99 3 238
1877131S07090 1877 14 SI MM NOT_NAMED 1877-05-13 06:00:00 NR -8.90000 86.5000 main 1592 1592 _____O________ -1 -8.90000 86.5000 99 9.90000 3 237
1877131S07090 1877 14 SI MM NOT_NAMED 1877-05-13 09:00:00 NR -8.99530 86.3578 main 1607 1607 _____P________ -1 -8.99530 86.3578 99 3 236
1877131S07090 1877 14 SI MM NOT_NAMED 1877-05-13 12:00:00 NR -9.09272 86.2177 main 1632 1632 _____P________ -1 -9.09272 86.2177 99 3 234
1877131S07090 1877 14 SI MM NOT_NAMED 1877-05-13 15:00:00 NR -9.19188 86.0794 main 1647 1647 _____P________ -1 -9.19188 86.0794 99 3 234
1877131S07090 1877 14 SI MM NOT_NAMED 1877-05-13 18:00:00 NR -9.29238 85.9424 main 1672 1672 _____P________ -1 -9.29238 85.9424 99 3 233
1877131S07090 1877 14 SI MM NOT_NAMED 1877-05-13 21:00:00 NR -9.39384 85.8063 main 1687 1687 _____P________ -1 -9.39384 85.8063 99 3 233
1877131S07090 1877 14 SI MM NOT_NAMED 1877-05-14 00:00:00 NR -9.49585 85.6708 main 1702 1702 _____P________ -1 -9.49585 85.6708 99 3 233
1877131S07090 1877 14 SI MM NOT_NAMED 1877-05-14 03:00:00 NR -9.59804 85.5355 main 1727 1727 _____P________ -1 -9.59804 85.5355 99 3 233
1877131S07090 1877 14 SI MM NOT_NAMED 1877-05-14 06:00:00 NR -9.70000 85.4000 main 1742 1742 _____O________ -1 -9.70000 85.4000 99 9.90000 3 233
1877131S07090 1877 14 SI MM NOT_NAMED 1877-05-14 09:00:00 NR -9.79996 85.2625 main 1757 1757 _____P________ -1 -9.79996 85.2625 99 3 234
1877131S07090 1877 14 SI MM NOT_NAMED 1877-05-14 12:00:00 NR -9.89993 85.1249 main 1781 1781 _____P________ -1 -9.89993 85.1249 99 3 234
1877131S07090 1877 14 SI MM NOT_NAMED 1877-05-14 15:00:00 NR -9.99991 84.9874 main 1797 1797 _____P________ -1 -9.99991 84.9874 99 3 234
1877131S07090 1877 14 SI MM NOT_NAMED 1877-05-14 18:00:00 NR -10.0999 84.8499 main 1821 1821 _____P________ -1 -10.0999 84.8499 99 3 234
1877131S07090 1877 14 SI MM NOT_NAMED 1877-05-14 21:00:00 NR -10.1999 84.7124 main 1836 1836 _____P________ -1 -10.1999 84.7124 99 3 234
1877131S07090 1877 14 SI MM NOT_NAMED 1877-05-15 00:00:00 NR -10.2999 84.5749 main 1851 1851 _____P________ -1 -10.2999 84.5749 99 3 234
1877131S07090 1877 14 SI MM NOT_NAMED 1877-05-15 03:00:00 NR -10.4000 84.4374 main 1874 1874 _____P________ -1 -10.4000 84.4374 99 3 234
1877131S07090 1877 14 SI MM NOT_NAMED 1877-05-15 06:00:00 NR -10.5000 84.3000 main 1882 1880 _____O________ -1 -10.5000 84.3000 99 9.90000 3 234
1877131S07090 1877 14 SI MM NOT_NAMED 1877-05-15 09:00:00 NR -10.5826 84.1813 main 1891 1889 _____P________ -1 -10.5826 84.1813 99 3 235
1877131S07090 1877 14 SI MM NOT_NAMED 1877-05-15 12:00:00 NR -10.6631 84.0649 main 1900 1897 _____P________ -1 -10.6631 84.0649 99 3 235
1877131S07090 1877 14 SI MM NOT_NAMED 1877-05-15 15:00:00 NR -10.7450 83.9470 main 1895 1895 _____P________ -1 -10.7450 83.9470 99 3 235
1877131S07090 1877 14 SI MM NOT_NAMED 1877-05-15 18:00:00 NR -10.8319 83.8238 main 1904 1904 _____P________ -1 -10.8319 83.8238 99 3 234
1877131S07090 1877 14 SI MM NOT_NAMED 1877-05-15 21:00:00 NR -10.9273 83.6914 main 1913 1913 _____P________ -1 -10.9273 83.6914 99 3 233
1877131S07090 1877 14 SI MM NOT_NAMED 1877-05-16 00:00:00 NR -11.0348 83.5459 main 1920 1920 _____P________ -1 -11.0348 83.5459 99 4 233
1877131S07090 1877 14 SI MM NOT_NAMED 1877-05-16 03:00:00 NR -11.1579 83.3834 main 1940 1939 _____P________ -1 -11.1579 83.3834 99 4 232
1877131S07090 1877 14 SI MM NOT_NAMED 1877-05-16 06:00:00 NR -11.3000 83.2000 main 1948 1946 _____O________ -1 -11.3000 83.2000 99 9.90000 5 231
1877131S07090 1877 14 SI MM NOT_NAMED 1877-05-16 09:00:00 NR -11.4637 82.9929 main 1967 1966 _____P________ -1 -11.4637 82.9929 99 6 231
1877131S07090 1877 14 SI MM NOT_NAMED 1877-05-16 12:00:00 NR -11.6470 82.7640 main 1975 1975 _____P________ -1 -11.6470 82.7640 99 6 231
1877131S07090 1877 14 SI MM NOT_NAMED 1877-05-16 15:00:00 NR -11.8473 82.5162 main 1994 1994 _____P________ -1 -11.8473 82.5162 99 7 230
1877131S07090 1877 14 SI MM NOT_NAMED 1877-05-16 18:00:00 NR -12.0614 82.2525 main 2025 2023 _____P________ -1 -12.0614 82.2525 99 7 230
1877131S07090 1877 14 SI MM NOT_NAMED 1877-05-16 21:00:00 NR -12.2867 81.9760 main 2045 2044 _____P________ -1 -12.2867 81.9760 99 7 230
1877131S07090 1877 14 SI MM NOT_NAMED 1877-05-17 00:00:00 NR -12.5201 81.6897 main 2065 2065 _____P________ -1 -12.5201 81.6897 99 7 230
1877131S07090 1877 14 SI MM NOT_NAMED 1877-05-17 03:00:00 NR -12.7588 81.3967 main 2097 2096 _____P________ -1 -12.7588 81.3967 99 8 230
1877131S07090 1877 14 SI MM NOT_NAMED 1877-05-17 06:00:00 NR -13.0000 81.1000 main 2118 _____O________ -1 -13.0000 81.1000 99 9.90000 8 230

IBTrACS Databaseについて

本データベースは、米国NOAAが公開する1842年以降の世界の熱帯低気圧のベストトラックデータアーカイブInternational Best Track Archive for Climate Stewardship (IBTrACS)を、ウェブで閲覧しやすい形式に変換したものです。

最終更新日:2021-11-26